sensor_id;sensor_type;location;lat;lon;timestamp;P1;durP1;ratioP1;P2;durP2;ratioP2
18102;SDS011;9178;51.120;6.192;2023-07-24T00:00:05;2.97;;;2.50;;
18102;SDS011;9178;51.120;6.192;2023-07-24T00:02:34;4.32;;;2.80;;
18102;SDS011;9178;51.120;6.192;2023-07-24T00:05:01;3.25;;;2.97;;
18102;SDS011;9178;51.120;6.192;2023-07-24T00:07:28;3.58;;;2.63;;
18102;SDS011;9178;51.120;6.192;2023-07-24T00:09:55;3.55;;;2.83;;
18102;SDS011;9178;51.120;6.192;2023-07-24T00:12:22;4.55;;;2.63;;
18102;SDS011;9178;51.120;6.192;2023-07-24T00:14:51;4.32;;;3.17;;
18102;SDS011;9178;51.120;6.192;2023-07-24T00:17:18;3.70;;;2.78;;
18102;SDS011;9178;51.120;6.192;2023-07-24T00:19:46;3.42;;;2.88;;
18102;SDS011;9178;51.120;6.192;2023-07-24T00:22:14;5.38;;;2.70;;
18102;SDS011;9178;51.120;6.192;2023-07-24T00:24:41;4.03;;;2.92;;
18102;SDS011;9178;51.120;6.192;2023-07-24T00:27:08;4.25;;;3.40;;
18102;SDS011;9178;51.120;6.192;2023-07-24T00:29:36;3.22;;;2.92;;
18102;SDS011;9178;51.120;6.192;2023-07-24T00:32:03;3.33;;;3.03;;
18102;SDS011;9178;51.120;6.192;2023-07-24T00:34:30;4.45;;;3.05;;
18102;SDS011;9178;51.120;6.192;2023-07-24T00:37:01;4.00;;;3.00;;
18102;SDS011;9178;51.120;6.192;2023-07-24T00:39:28;4.50;;;2.83;;
18102;SDS011;9178;51.120;6.192;2023-07-24T00:41:55;4.95;;;3.13;;
18102;SDS011;9178;51.120;6.192;2023-07-24T00:44:22;3.50;;;3.20;;
18102;SDS011;9178;51.120;6.192;2023-07-24T00:46:51;3.67;;;3.13;;
18102;SDS011;9178;51.120;6.192;2023-07-24T00:49:19;3.92;;;3.28;;
18102;SDS011;9178;51.120;6.192;2023-07-24T00:51:47;3.22;;;2.95;;
18102;SDS011;9178;51.120;6.192;2023-07-24T00:54:18;5.78;;;3.65;;
18102;SDS011;9178;51.120;6.192;2023-07-24T00:56:47;3.65;;;3.33;;
18102;SDS011;9178;51.120;6.192;2023-07-24T00:59:17;7.55;;;3.85;;
18102;SDS011;9178;51.120;6.192;2023-07-24T01:01:45;3.70;;;3.35;;
18102;SDS011;9178;51.120;6.192;2023-07-24T01:04:13;4.47;;;3.47;;
18102;SDS011;9178;51.120;6.192;2023-07-24T01:06:42;3.75;;;3.30;;
18102;SDS011;9178;51.120;6.192;2023-07-24T01:09:09;5.88;;;3.85;;
18102;SDS011;9178;51.120;6.192;2023-07-24T01:11:38;4.03;;;3.70;;
18102;SDS011;9178;51.120;6.192;2023-07-24T01:14:09;5.90;;;4.20;;
18102;SDS011;9178;51.120;6.192;2023-07-24T01:16:46;5.60;;;4.07;;
18102;SDS011;9178;51.120;6.192;2023-07-24T01:19:16;6.05;;;3.70;;
18102;SDS011;9178;51.120;6.192;2023-07-24T01:21:56;7.15;;;4.05;;
18102;SDS011;9178;51.120;6.192;2023-07-24T01:24:36;6.28;;;4.30;;
18102;SDS011;9178;51.120;6.192;2023-07-24T01:27:18;3.92;;;3.63;;
18102;SDS011;9178;51.120;6.192;2023-07-24T01:29:46;4.90;;;4.18;;
18102;SDS011;9178;51.120;6.192;2023-07-24T01:32:13;5.60;;;4.00;;
18102;SDS011;9178;51.120;6.192;2023-07-24T01:34:42;5.57;;;4.05;;
18102;SDS011;9178;51.120;6.192;2023-07-24T01:37:09;4.43;;;3.97;;
18102;SDS011;9178;51.120;6.192;2023-07-24T01:39:37;6.03;;;4.28;;
18102;SDS011;9178;51.120;6.192;2023-07-24T01:42:06;5.03;;;3.95;;
18102;SDS011;9178;51.120;6.192;2023-07-24T01:44:35;4.88;;;4.38;;
18102;SDS011;9178;51.120;6.192;2023-07-24T01:47:03;7.00;;;4.28;;
18102;SDS011;9178;51.120;6.192;2023-07-24T01:49:30;5.63;;;4.00;;
18102;SDS011;9178;51.120;6.192;2023-07-24T01:51:58;5.45;;;4.15;;
18102;SDS011;9178;51.120;6.192;2023-07-24T01:54:26;7.57;;;4.47;;
18102;SDS011;9178;51.120;6.192;2023-07-24T01:56:52;6.03;;;4.22;;
18102;SDS011;9178;51.120;6.192;2023-07-24T01:59:23;4.65;;;4.15;;
18102;SDS011;9178;51.120;6.192;2023-07-24T02:02:01;6.88;;;4.55;;
18102;SDS011;9178;51.120;6.192;2023-07-24T02:04:28;12.80;;;5.38;;
18102;SDS011;9178;51.120;6.192;2023-07-24T02:06:55;10.38;;;4.45;;
18102;SDS011;9178;51.120;6.192;2023-07-24T02:09:22;12.05;;;5.13;;
18102;SDS011;9178;51.120;6.192;2023-07-24T02:11:51;6.63;;;4.22;;
18102;SDS011;9178;51.120;6.192;2023-07-24T02:14:27;8.55;;;4.70;;
18102;SDS011;9178;51.120;6.192;2023-07-24T02:16:54;8.32;;;4.60;;
18102;SDS011;9178;51.120;6.192;2023-07-24T02:19:23;8.85;;;4.93;;
18102;SDS011;9178;51.120;6.192;2023-07-24T02:21:53;5.32;;;4.32;;
18102;SDS011;9178;51.120;6.192;2023-07-24T02:24:20;5.43;;;4.68;;
18102;SDS011;9178;51.120;6.192;2023-07-24T02:26:47;7.30;;;4.97;;
18102;SDS011;9178;51.120;6.192;2023-07-24T02:29:13;11.77;;;5.20;;
18102;SDS011;9178;51.120;6.192;2023-07-24T02:31:41;14.77;;;5.80;;
18102;SDS011;9178;51.120;6.192;2023-07-24T02:34:08;11.98;;;5.00;;
18102;SDS011;9178;51.120;6.192;2023-07-24T02:36:36;14.18;;;5.20;;
18102;SDS011;9178;51.120;6.192;2023-07-24T02:39:06;8.13;;;4.93;;
18102;SDS011;9178;51.120;6.192;2023-07-24T02:41:33;9.27;;;4.88;;
18102;SDS011;9178;51.120;6.192;2023-07-24T02:44:02;7.10;;;4.95;;
18102;SDS011;9178;51.120;6.192;2023-07-24T02:46:29;7.95;;;5.45;;
18102;SDS011;9178;51.120;6.192;2023-07-24T02:48:57;9.43;;;5.03;;
18102;SDS011;9178;51.120;6.192;2023-07-24T02:51:24;9.82;;;5.22;;
18102;SDS011;9178;51.120;6.192;2023-07-24T02:53:54;6.97;;;4.90;;
18102;SDS011;9178;51.120;6.192;2023-07-24T02:56:24;10.38;;;5.70;;
18102;SDS011;9178;51.120;6.192;2023-07-24T02:58:54;9.85;;;5.75;;
18102;SDS011;9178;51.120;6.192;2023-07-24T03:01:21;11.85;;;5.55;;
18102;SDS011;9178;51.120;6.192;2023-07-24T03:03:48;9.32;;;5.63;;
18102;SDS011;9178;51.120;6.192;2023-07-24T03:06:15;10.75;;;5.40;;
18102;SDS011;9178;51.120;6.192;2023-07-24T03:08:42;10.05;;;5.00;;
18102;SDS011;9178;51.120;6.192;2023-07-24T03:11:10;11.07;;;5.38;;
18102;SDS011;9178;51.120;6.192;2023-07-24T03:13:37;11.48;;;6.28;;
18102;SDS011;9178;51.120;6.192;2023-07-24T03:16:06;11.93;;;5.47;;
18102;SDS011;9178;51.120;6.192;2023-07-24T03:18:33;7.75;;;5.35;;
18102;SDS011;9178;51.120;6.192;2023-07-24T03:21:00;8.80;;;5.90;;
18102;SDS011;9178;51.120;6.192;2023-07-24T03:23:27;9.20;;;5.10;;
18102;SDS011;9178;51.120;6.192;2023-07-24T03:25:54;9.13;;;5.60;;
18102;SDS011;9178;51.120;6.192;2023-07-24T03:28:22;16.35;;;6.50;;
18102;SDS011;9178;51.120;6.192;2023-07-24T03:30:50;11.63;;;5.55;;
18102;SDS011;9178;51.120;6.192;2023-07-24T03:33:17;12.80;;;5.28;;
18102;SDS011;9178;51.120;6.192;2023-07-24T03:35:44;8.77;;;5.30;;
18102;SDS011;9178;51.120;6.192;2023-07-24T03:38:11;11.57;;;6.03;;
18102;SDS011;9178;51.120;6.192;2023-07-24T03:40:38;16.88;;;5.82;;
18102;SDS011;9178;51.120;6.192;2023-07-24T03:43:05;12.85;;;6.10;;
18102;SDS011;9178;51.120;6.192;2023-07-24T03:45:34;13.52;;;6.05;;
18102;SDS011;9178;51.120;6.192;2023-07-24T03:48:02;13.40;;;6.75;;
18102;SDS011;9178;51.120;6.192;2023-07-24T03:50:29;13.02;;;6.35;;
18102;SDS011;9178;51.120;6.192;2023-07-24T03:52:56;10.68;;;5.50;;
18102;SDS011;9178;51.120;6.192;2023-07-24T03:55:23;8.45;;;5.50;;
18102;SDS011;9178;51.120;6.192;2023-07-24T03:57:49;12.75;;;5.90;;
18102;SDS011;9178;51.120;6.192;2023-07-24T04:00:17;11.20;;;5.10;;
18102;SDS011;9178;51.120;6.192;2023-07-24T04:02:46;9.18;;;5.38;;
18102;SDS011;9178;51.120;6.192;2023-07-24T04:05:13;12.18;;;5.53;;
18102;SDS011;9178;51.120;6.192;2023-07-24T04:07:40;12.55;;;5.55;;
18102;SDS011;9178;51.120;6.192;2023-07-24T04:10:07;10.30;;;5.65;;
18102;SDS011;9178;51.120;6.192;2023-07-24T04:12:34;15.07;;;6.53;;
18102;SDS011;9178;51.120;6.192;2023-07-24T04:15:05;8.55;;;5.30;;
18102;SDS011;9178;51.120;6.192;2023-07-24T04:17:33;16.02;;;6.13;;
18102;SDS011;9178;51.120;6.192;2023-07-24T04:20:02;15.98;;;6.10;;
18102;SDS011;9178;51.120;6.192;2023-07-24T04:22:31;19.17;;;7.35;;
18102;SDS011;9178;51.120;6.192;2023-07-24T04:24:58;8.82;;;5.72;;
18102;SDS011;9178;51.120;6.192;2023-07-24T04:27:25;11.32;;;5.50;;
18102;SDS011;9178;51.120;6.192;2023-07-24T04:29:52;15.98;;;7.28;;
18102;SDS011;9178;51.120;6.192;2023-07-24T04:32:19;15.40;;;6.70;;
18102;SDS011;9178;51.120;6.192;2023-07-24T04:34:46;12.35;;;6.18;;
18102;SDS011;9178;51.120;6.192;2023-07-24T04:37:14;13.70;;;6.05;;
18102;SDS011;9178;51.120;6.192;2023-07-24T04:39:41;13.98;;;6.50;;
18102;SDS011;9178;51.120;6.192;2023-07-24T04:42:08;19.73;;;6.72;;
18102;SDS011;9178;51.120;6.192;2023-07-24T04:44:38;8.43;;;5.43;;
18102;SDS011;9178;51.120;6.192;2023-07-24T04:47:05;9.02;;;5.20;;
18102;SDS011;9178;51.120;6.192;2023-07-24T04:49:32;10.05;;;6.30;;
18102;SDS011;9178;51.120;6.192;2023-07-24T04:51:59;8.05;;;5.60;;
18102;SDS011;9178;51.120;6.192;2023-07-24T04:54:28;11.70;;;6.03;;
18102;SDS011;9178;51.120;6.192;2023-07-24T04:56:55;10.77;;;5.65;;
18102;SDS011;9178;51.120;6.192;2023-07-24T04:59:22;16.92;;;6.40;;
18102;SDS011;9178;51.120;6.192;2023-07-24T05:01:54;13.35;;;6.22;;
18102;SDS011;9178;51.120;6.192;2023-07-24T05:04:21;12.02;;;7.00;;
18102;SDS011;9178;51.120;6.192;2023-07-24T05:06:48;15.00;;;6.70;;
18102;SDS011;9178;51.120;6.192;2023-07-24T05:09:15;9.65;;;5.82;;
18102;SDS011;9178;51.120;6.192;2023-07-24T05:11:43;10.38;;;6.45;;
18102;SDS011;9178;51.120;6.192;2023-07-24T05:14:12;11.98;;;6.38;;
18102;SDS011;9178;51.120;6.192;2023-07-24T05:16:39;15.43;;;6.18;;
18102;SDS011;9178;51.120;6.192;2023-07-24T05:19:06;10.88;;;6.32;;
18102;SDS011;9178;51.120;6.192;2023-07-24T05:21:33;7.57;;;5.43;;
18102;SDS011;9178;51.120;6.192;2023-07-24T05:24:00;7.75;;;5.72;;
18102;SDS011;9178;51.120;6.192;2023-07-24T05:26:28;13.82;;;6.20;;
18102;SDS011;9178;51.120;6.192;2023-07-24T05:29:04;10.30;;;5.50;;
18102;SDS011;9178;51.120;6.192;2023-07-24T05:31:33;7.85;;;5.88;;
18102;SDS011;9178;51.120;6.192;2023-07-24T05:34:01;8.35;;;6.10;;
18102;SDS011;9178;51.120;6.192;2023-07-24T05:36:28;11.07;;;5.72;;
18102;SDS011;9178;51.120;6.192;2023-07-24T05:38:55;10.48;;;5.50;;
18102;SDS011;9178;51.120;6.192;2023-07-24T05:41:25;15.27;;;5.97;;
18102;SDS011;9178;51.120;6.192;2023-07-24T05:43:52;5.72;;;5.05;;
18102;SDS011;9178;51.120;6.192;2023-07-24T05:46:20;6.72;;;5.00;;
18102;SDS011;9178;51.120;6.192;2023-07-24T05:48:47;8.07;;;5.18;;
18102;SDS011;9178;51.120;6.192;2023-07-24T05:51:14;8.35;;;4.35;;
18102;SDS011;9178;51.120;6.192;2023-07-24T05:53:44;9.82;;;5.13;;
18102;SDS011;9178;51.120;6.192;2023-07-24T05:56:11;7.72;;;5.05;;
18102;SDS011;9178;51.120;6.192;2023-07-24T05:58:38;6.53;;;4.43;;
18102;SDS011;9178;51.120;6.192;2023-07-24T06:01:05;4.95;;;4.45;;
18102;SDS011;9178;51.120;6.192;2023-07-24T06:03:36;7.68;;;4.57;;
18102;SDS011;9178;51.120;6.192;2023-07-24T06:06:04;5.53;;;4.65;;
18102;SDS011;9178;51.120;6.192;2023-07-24T06:08:31;6.22;;;4.13;;
18102;SDS011;9178;51.120;6.192;2023-07-24T06:10:58;6.95;;;4.15;;
18102;SDS011;9178;51.120;6.192;2023-07-24T06:13:25;7.57;;;4.50;;
18102;SDS011;9178;51.120;6.192;2023-07-24T06:15:52;5.35;;;4.03;;
18102;SDS011;9178;51.120;6.192;2023-07-24T06:18:19;5.00;;;4.00;;
18102;SDS011;9178;51.120;6.192;2023-07-24T06:20:48;6.40;;;4.40;;
18102;SDS011;9178;51.120;6.192;2023-07-24T06:23:18;4.47;;;3.60;;
18102;SDS011;9178;51.120;6.192;2023-07-24T06:25:45;4.55;;;3.72;;
18102;SDS011;9178;51.120;6.192;2023-07-24T06:28:13;6.00;;;3.55;;
18102;SDS011;9178;51.120;6.192;2023-07-24T06:30:40;4.13;;;3.30;;
18102;SDS011;9178;51.120;6.192;2023-07-24T06:33:07;4.72;;;3.63;;
18102;SDS011;9178;51.120;6.192;2023-07-24T06:35:35;5.55;;;3.42;;
18102;SDS011;9178;51.120;6.192;2023-07-24T06:38:03;6.90;;;3.90;;
18102;SDS011;9178;51.120;6.192;2023-07-24T06:40:34;4.13;;;2.88;;
18102;SDS011;9178;51.120;6.192;2023-07-24T06:43:02;8.45;;;3.55;;
18102;SDS011;9178;51.120;6.192;2023-07-24T06:45:29;4.43;;;3.08;;
18102;SDS011;9178;51.120;6.192;2023-07-24T06:47:56;5.30;;;3.10;;
18102;SDS011;9178;51.120;6.192;2023-07-24T06:50:24;5.57;;;2.85;;
18102;SDS011;9178;51.120;6.192;2023-07-24T06:52:51;4.30;;;3.30;;
18102;SDS011;9178;51.120;6.192;2023-07-24T06:55:20;4.95;;;3.20;;
18102;SDS011;9178;51.120;6.192;2023-07-24T06:57:47;5.63;;;2.90;;
18102;SDS011;9178;51.120;6.192;2023-07-24T07:00:14;4.38;;;2.90;;
18102;SDS011;9178;51.120;6.192;2023-07-24T07:02:42;3.47;;;2.80;;
18102;SDS011;9178;51.120;6.192;2023-07-24T07:05:08;4.90;;;2.90;;
18102;SDS011;9178;51.120;6.192;2023-07-24T07:07:36;5.25;;;2.83;;
18102;SDS011;9178;51.120;6.192;2023-07-24T07:10:04;3.15;;;2.85;;
18102;SDS011;9178;51.120;6.192;2023-07-24T07:12:33;6.80;;;3.38;;
18102;SDS011;9178;51.120;6.192;2023-07-24T07:15:00;2.92;;;2.53;;
18102;SDS011;9178;51.120;6.192;2023-07-24T07:17:27;4.43;;;2.95;;
18102;SDS011;9178;51.120;6.192;2023-07-24T07:19:54;3.33;;;2.55;;
18102;SDS011;9178;51.120;6.192;2023-07-24T07:22:22;3.00;;;2.70;;
18102;SDS011;9178;51.120;6.192;2023-07-24T07:24:49;7.20;;;2.90;;
18102;SDS011;9178;51.120;6.192;2023-07-24T07:27:16;4.35;;;2.70;;
18102;SDS011;9178;51.120;6.192;2023-07-24T07:29:47;4.15;;;2.80;;
18102;SDS011;9178;51.120;6.192;2023-07-24T07:32:14;5.50;;;2.72;;
18102;SDS011;9178;51.120;6.192;2023-07-24T07:34:41;5.13;;;2.92;;
18102;SDS011;9178;51.120;6.192;2023-07-24T07:37:08;5.18;;;3.00;;
18102;SDS011;9178;51.120;6.192;2023-07-24T07:39:36;3.70;;;2.42;;
18102;SDS011;9178;51.120;6.192;2023-07-24T07:42:03;4.28;;;2.58;;
18102;SDS011;9178;51.120;6.192;2023-07-24T07:44:30;4.05;;;2.70;;
18102;SDS011;9178;51.120;6.192;2023-07-24T07:46:59;5.13;;;2.70;;
18102;SDS011;9178;51.120;6.192;2023-07-24T07:49:26;4.57;;;2.85;;
18102;SDS011;9178;51.120;6.192;2023-07-24T07:51:53;4.00;;;2.40;;
18102;SDS011;9178;51.120;6.192;2023-07-24T07:54:20;2.45;;;2.20;;
18102;SDS011;9178;51.120;6.192;2023-07-24T07:56:47;2.95;;;2.25;;
18102;SDS011;9178;51.120;6.192;2023-07-24T07:59:15;4.10;;;2.10;;
18102;SDS011;9178;51.120;6.192;2023-07-24T08:01:42;3.42;;;2.33;;
18102;SDS011;9178;51.120;6.192;2023-07-24T08:04:12;4.60;;;2.03;;
18102;SDS011;9178;51.120;6.192;2023-07-24T08:06:39;3.53;;;2.03;;
18102;SDS011;9178;51.120;6.192;2023-07-24T08:09:06;3.42;;;2.10;;
18102;SDS011;9178;51.120;6.192;2023-07-24T08:11:33;2.25;;;1.98;;
18102;SDS011;9178;51.120;6.192;2023-07-24T08:14:00;4.10;;;2.00;;
18102;SDS011;9178;51.120;6.192;2023-07-24T08:16:27;2.70;;;2.50;;
18102;SDS011;9178;51.120;6.192;2023-07-24T08:18:54;2.42;;;2.03;;
18102;SDS011;9178;51.120;6.192;2023-07-24T08:21:22;3.53;;;2.10;;
18102;SDS011;9178;51.120;6.192;2023-07-24T08:23:49;2.05;;;1.85;;
18102;SDS011;9178;51.120;6.192;2023-07-24T08:26:19;2.50;;;2.30;;
18102;SDS011;9178;51.120;6.192;2023-07-24T08:28:46;2.90;;;1.90;;
18102;SDS011;9178;51.120;6.192;2023-07-24T08:31:13;3.42;;;2.33;;
18102;SDS011;9178;51.120;6.192;2023-07-24T08:33:40;2.63;;;2.13;;
18102;SDS011;9178;51.120;6.192;2023-07-24T08:36:07;4.28;;;2.30;;
18102;SDS011;9178;51.120;6.192;2023-07-24T08:38:38;2.65;;;2.30;;
18102;SDS011;9178;51.120;6.192;2023-07-24T08:41:08;2.28;;;2.00;;
18102;SDS011;9178;51.120;6.192;2023-07-24T08:43:36;7.05;;;2.28;;
18102;SDS011;9178;51.120;6.192;2023-07-24T08:46:05;2.85;;;2.65;;
18102;SDS011;9178;51.120;6.192;2023-07-24T08:48:33;4.95;;;2.42;;
18102;SDS011;9178;51.120;6.192;2023-07-24T08:51:02;2.95;;;2.35;;
18102;SDS011;9178;51.120;6.192;2023-07-24T08:53:29;4.13;;;2.38;;
18102;SDS011;9178;51.120;6.192;2023-07-24T08:55:58;2.65;;;2.22;;
18102;SDS011;9178;51.120;6.192;2023-07-24T08:58:26;2.83;;;2.28;;
18102;SDS011;9178;51.120;6.192;2023-07-24T09:00:54;2.53;;;2.15;;
18102;SDS011;9178;51.120;6.192;2023-07-24T09:03:22;4.00;;;2.50;;
18102;SDS011;9178;51.120;6.192;2023-07-24T09:05:49;2.33;;;2.03;;
18102;SDS011;9178;51.120;6.192;2023-07-24T09:08:16;3.80;;;2.50;;
18102;SDS011;9178;51.120;6.192;2023-07-24T09:10:54;4.03;;;2.70;;
18102;SDS011;9178;51.120;6.192;2023-07-24T09:13:23;3.63;;;2.00;;
18102;SDS011;9178;51.120;6.192;2023-07-24T09:15:50;3.35;;;2.20;;
18102;SDS011;9178;51.120;6.192;2023-07-24T09:18:17;2.30;;;1.92;;
18102;SDS011;9178;51.120;6.192;2023-07-24T09:20:45;3.92;;;2.20;;
18102;SDS011;9178;51.120;6.192;2023-07-24T09:23:13;2.00;;;1.90;;
18102;SDS011;9178;51.120;6.192;2023-07-24T09:25:41;2.38;;;2.17;;
18102;SDS011;9178;51.120;6.192;2023-07-24T09:28:09;4.93;;;2.60;;
18102;SDS011;9178;51.120;6.192;2023-07-24T09:30:39;4.78;;;2.33;;
18102;SDS011;9178;51.120;6.192;2023-07-24T09:33:06;4.93;;;2.40;;
18102;SDS011;9178;51.120;6.192;2023-07-24T09:35:34;3.55;;;2.45;;
18102;SDS011;9178;51.120;6.192;2023-07-24T09:38:02;3.03;;;2.53;;
18102;SDS011;9178;51.120;6.192;2023-07-24T09:40:36;4.13;;;2.20;;
18102;SDS011;9178;51.120;6.192;2023-07-24T09:43:15;2.30;;;2.10;;
18102;SDS011;9178;51.120;6.192;2023-07-24T09:45:58;2.47;;;2.28;;
18102;SDS011;9178;51.120;6.192;2023-07-24T09:48:26;2.17;;;1.98;;
18102;SDS011;9178;51.120;6.192;2023-07-24T09:50:54;2.00;;;1.88;;
18102;SDS011;9178;51.120;6.192;2023-07-24T09:53:24;1.83;;;1.73;;
18102;SDS011;9178;51.120;6.192;2023-07-24T09:55:59;3.95;;;1.95;;
18102;SDS011;9178;51.120;6.192;2023-07-24T09:58:27;2.17;;;1.83;;
18102;SDS011;9178;51.120;6.192;2023-07-24T10:00:56;3.17;;;2.00;;
18102;SDS011;9178;51.120;6.192;2023-07-24T10:03:25;6.65;;;2.28;;
18102;SDS011;9178;51.120;6.192;2023-07-24T10:05:52;4.10;;;2.53;;
18102;SDS011;9178;51.120;6.192;2023-07-24T10:08:19;2.35;;;2.15;;
18102;SDS011;9178;51.120;6.192;2023-07-24T10:10:47;1.67;;;1.58;;
18102;SDS011;9178;51.120;6.192;2023-07-24T10:13:16;2.25;;;1.40;;
18102;SDS011;9178;51.120;6.192;2023-07-24T10:15:44;1.80;;;1.67;;
18102;SDS011;9178;51.120;6.192;2023-07-24T10:18:15;4.30;;;2.35;;
18102;SDS011;9178;51.120;6.192;2023-07-24T10:20:42;2.80;;;1.98;;
18102;SDS011;9178;51.120;6.192;2023-07-24T10:23:10;2.75;;;1.70;;
18102;SDS011;9178;51.120;6.192;2023-07-24T10:25:43;1.95;;;1.80;;
18102;SDS011;9178;51.120;6.192;2023-07-24T10:28:14;1.77;;;1.67;;
18102;SDS011;9178;51.120;6.192;2023-07-24T10:30:54;1.67;;;1.58;;
18102;SDS011;9178;51.120;6.192;2023-07-24T10:33:24;1.70;;;1.60;;
18102;SDS011;9178;51.120;6.192;2023-07-24T10:36:04;3.05;;;1.63;;
18102;SDS011;9178;51.120;6.192;2023-07-24T10:38:40;16.20;;;3.45;;
18102;SDS011;9178;51.120;6.192;2023-07-24T10:41:08;6.40;;;2.50;;
18102;SDS011;9178;51.120;6.192;2023-07-24T10:43:40;2.97;;;1.98;;
18102;SDS011;9178;51.120;6.192;2023-07-24T10:46:08;2.50;;;2.00;;
18102;SDS011;9178;51.120;6.192;2023-07-24T10:48:36;2.95;;;2.00;;
18102;SDS011;9178;51.120;6.192;2023-07-24T10:51:07;1.63;;;1.52;;
18102;SDS011;9178;51.120;6.192;2023-07-24T10:53:36;3.15;;;1.92;;
18102;SDS011;9178;51.120;6.192;2023-07-24T10:56:03;20.63;;;3.67;;
18102;SDS011;9178;51.120;6.192;2023-07-24T10:58:31;11.43;;;3.40;;
18102;SDS011;9178;51.120;6.192;2023-07-24T11:01:03;5.00;;;2.42;;
18102;SDS011;9178;51.120;6.192;2023-07-24T11:03:31;9.05;;;3.03;;
18102;SDS011;9178;51.120;6.192;2023-07-24T11:05:59;6.43;;;2.88;;
18102;SDS011;9178;51.120;6.192;2023-07-24T11:08:38;3.97;;;2.30;;
18102;SDS011;9178;51.120;6.192;2023-07-24T11:11:05;4.03;;;2.67;;
18102;SDS011;9178;51.120;6.192;2023-07-24T11:13:33;16.40;;;3.20;;
18102;SDS011;9178;51.120;6.192;2023-07-24T11:16:04;2.97;;;2.28;;
18102;SDS011;9178;51.120;6.192;2023-07-24T11:18:32;7.65;;;2.97;;
18102;SDS011;9178;51.120;6.192;2023-07-24T11:21:00;7.90;;;2.63;;
18102;SDS011;9178;51.120;6.192;2023-07-24T11:23:27;3.80;;;1.70;;
18102;SDS011;9178;51.120;6.192;2023-07-24T11:25:54;6.50;;;1.70;;
18102;SDS011;9178;51.120;6.192;2023-07-24T11:28:22;4.63;;;1.70;;
18102;SDS011;9178;51.120;6.192;2023-07-24T11:30:49;1.65;;;1.45;;
18102;SDS011;9178;51.120;6.192;2023-07-24T11:33:16;2.85;;;1.60;;
18102;SDS011;9178;51.120;6.192;2023-07-24T11:35:49;4.10;;;1.67;;
18102;SDS011;9178;51.120;6.192;2023-07-24T11:38:18;1.40;;;1.30;;
18102;SDS011;9178;51.120;6.192;2023-07-24T11:40:45;32.92;;;3.42;;
18102;SDS011;9178;51.120;6.192;2023-07-24T11:43:16;1.60;;;1.50;;
18102;SDS011;9178;51.120;6.192;2023-07-24T11:45:44;1.20;;;1.17;;
18102;SDS011;9178;51.120;6.192;2023-07-24T11:48:14;2.30;;;1.60;;
18102;SDS011;9178;51.120;6.192;2023-07-24T11:50:42;1.20;;;1.10;;
18102;SDS011;9178;51.120;6.192;2023-07-24T11:53:19;1.92;;;1.40;;
18102;SDS011;9178;51.120;6.192;2023-07-24T11:55:48;1.67;;;1.27;;
18102;SDS011;9178;51.120;6.192;2023-07-24T11:58:16;1.42;;;1.20;;
18102;SDS011;9178;51.120;6.192;2023-07-24T12:00:44;1.52;;;1.25;;
18102;SDS011;9178;51.120;6.192;2023-07-24T12:03:12;1.73;;;1.30;;
18102;SDS011;9178;51.120;6.192;2023-07-24T12:05:39;1.23;;;1.13;;
18102;SDS011;9178;51.120;6.192;2023-07-24T12:08:08;1.35;;;1.25;;
18102;SDS011;9178;51.120;6.192;2023-07-24T12:10:37;0.85;;;0.85;;
18102;SDS011;9178;51.120;6.192;2023-07-24T12:13:04;0.93;;;0.93;;
18102;SDS011;9178;51.120;6.192;2023-07-24T12:15:32;1.00;;;1.00;;
18102;SDS011;9178;51.120;6.192;2023-07-24T12:18:00;3.47;;;1.48;;
18102;SDS011;9178;51.120;6.192;2023-07-24T12:20:28;1.95;;;1.00;;
18102;SDS011;9178;51.120;6.192;2023-07-24T12:22:56;1.02;;;1.02;;
18102;SDS011;9178;51.120;6.192;2023-07-24T12:25:23;1.15;;;0.80;;
18102;SDS011;9178;51.120;6.192;2023-07-24T12:27:52;1.73;;;1.00;;
18102;SDS011;9178;51.120;6.192;2023-07-24T12:30:19;1.50;;;0.80;;
18102;SDS011;9178;51.120;6.192;2023-07-24T12:32:46;1.67;;;0.70;;
18102;SDS011;9178;51.120;6.192;2023-07-24T12:35:13;0.80;;;0.80;;
18102;SDS011;9178;51.120;6.192;2023-07-24T12:37:41;1.05;;;0.63;;
18102;SDS011;9178;51.120;6.192;2023-07-24T12:40:08;1.20;;;1.10;;
18102;SDS011;9178;51.120;6.192;2023-07-24T12:42:36;1.80;;;0.70;;
18102;SDS011;9178;51.120;6.192;2023-07-24T12:45:06;1.35;;;0.80;;
18102;SDS011;9178;51.120;6.192;2023-07-24T12:47:34;0.70;;;0.70;;
18102;SDS011;9178;51.120;6.192;2023-07-24T12:50:01;0.55;;;0.50;;
18102;SDS011;9178;51.120;6.192;2023-07-24T12:52:28;0.70;;;0.70;;
18102;SDS011;9178;51.120;6.192;2023-07-24T12:54:56;0.73;;;0.57;;
18102;SDS011;9178;51.120;6.192;2023-07-24T12:57:23;1.63;;;0.50;;
18102;SDS011;9178;51.120;6.192;2023-07-24T12:59:51;0.70;;;0.70;;
18102;SDS011;9178;51.120;6.192;2023-07-24T13:02:33;0.73;;;0.60;;
18102;SDS011;9178;51.120;6.192;2023-07-24T13:05:04;0.50;;;0.50;;
18102;SDS011;9178;51.120;6.192;2023-07-24T13:07:34;0.70;;;0.70;;
18102;SDS011;9178;51.120;6.192;2023-07-24T13:10:14;0.70;;;0.60;;
18102;SDS011;9178;51.120;6.192;2023-07-24T13:12:44;1.50;;;0.68;;
18102;SDS011;9178;51.120;6.192;2023-07-24T13:15:11;0.60;;;0.60;;
18102;SDS011;9178;51.120;6.192;2023-07-24T13:17:39;0.88;;;0.75;;
18102;SDS011;9178;51.120;6.192;2023-07-24T13:20:07;2.63;;;0.73;;
18102;SDS011;9178;51.120;6.192;2023-07-24T13:22:35;1.92;;;0.93;;
18102;SDS011;9178;51.120;6.192;2023-07-24T13:25:02;2.75;;;0.88;;
18102;SDS011;9178;51.120;6.192;2023-07-24T13:27:43;1.55;;;0.90;;
18102;SDS011;9178;51.120;6.192;2023-07-24T13:30:18;2.90;;;1.10;;
18102;SDS011;9178;51.120;6.192;2023-07-24T13:32:46;0.73;;;0.73;;
18102;SDS011;9178;51.120;6.192;2023-07-24T13:35:13;1.00;;;1.00;;
18102;SDS011;9178;51.120;6.192;2023-07-24T13:37:41;1.70;;;0.95;;
18102;SDS011;9178;51.120;6.192;2023-07-24T13:40:08;1.25;;;1.10;;
18102;SDS011;9178;51.120;6.192;2023-07-24T13:42:36;1.45;;;1.30;;
18102;SDS011;9178;51.120;6.192;2023-07-24T13:45:05;2.88;;;1.30;;
18102;SDS011;9178;51.120;6.192;2023-07-24T13:47:32;1.90;;;1.30;;
18102;SDS011;9178;51.120;6.192;2023-07-24T13:50:01;1.05;;;1.00;;
18102;SDS011;9178;51.120;6.192;2023-07-24T13:52:28;2.63;;;1.40;;
18102;SDS011;9178;51.120;6.192;2023-07-24T13:55:03;2.97;;;1.33;;
18102;SDS011;9178;51.120;6.192;2023-07-24T13:57:31;1.55;;;1.45;;
18102;SDS011;9178;51.120;6.192;2023-07-24T13:59:58;2.50;;;1.55;;
18102;SDS011;9178;51.120;6.192;2023-07-24T14:02:25;2.30;;;1.30;;
18102;SDS011;9178;51.120;6.192;2023-07-24T14:04:54;1.60;;;1.45;;
18102;SDS011;9178;51.120;6.192;2023-07-24T14:07:31;1.40;;;1.30;;
18102;SDS011;9178;51.120;6.192;2023-07-24T14:09:59;2.35;;;1.52;;
18102;SDS011;9178;51.120;6.192;2023-07-24T14:12:26;1.92;;;1.40;;
18102;SDS011;9178;51.120;6.192;2023-07-24T14:14:56;1.50;;;1.40;;
18102;SDS011;9178;51.120;6.192;2023-07-24T14:17:23;1.60;;;1.50;;
18102;SDS011;9178;51.120;6.192;2023-07-24T14:19:51;1.67;;;1.58;;
18102;SDS011;9178;51.120;6.192;2023-07-24T14:22:18;2.65;;;1.30;;
18102;SDS011;9178;51.120;6.192;2023-07-24T14:24:46;1.67;;;1.15;;
18102;SDS011;9178;51.120;6.192;2023-07-24T14:27:14;3.08;;;1.27;;
18102;SDS011;9178;51.120;6.192;2023-07-24T14:29:41;2.22;;;1.25;;
18102;SDS011;9178;51.120;6.192;2023-07-24T14:32:08;0.85;;;0.85;;
18102;SDS011;9178;51.120;6.192;2023-07-24T14:34:38;1.38;;;1.00;;
18102;SDS011;9178;51.120;6.192;2023-07-24T14:37:06;3.35;;;1.27;;
18102;SDS011;9178;51.120;6.192;2023-07-24T14:39:33;0.93;;;0.93;;
18102;SDS011;9178;51.120;6.192;2023-07-24T14:42:03;12.30;;;1.85;;
18102;SDS011;9178;51.120;6.192;2023-07-24T14:44:40;24.13;;;2.17;;
18102;SDS011;9178;51.120;6.192;2023-07-24T14:47:07;0.98;;;0.95;;
18102;SDS011;9178;51.120;6.192;2023-07-24T14:49:34;1.23;;;0.93;;
18102;SDS011;9178;51.120;6.192;2023-07-24T14:52:02;1.08;;;0.95;;
18102;SDS011;9178;51.120;6.192;2023-07-24T14:54:29;1.30;;;1.17;;
18102;SDS011;9178;51.120;6.192;2023-07-24T14:56:57;1.23;;;1.20;;
18102;SDS011;9178;51.120;6.192;2023-07-24T14:59:25;1.23;;;1.13;;
18102;SDS011;9178;51.120;6.192;2023-07-24T15:01:52;1.95;;;1.30;;
18102;SDS011;9178;51.120;6.192;2023-07-24T15:04:19;2.80;;;1.30;;